Station Historical Data
Daily Summary for November 6, 2017 Units:  Metric    English   Both
« Previous Day
Next Day »
Daily Weekly Monthly Yearly Custom
  High: Low: Average:
Temperature: 24.6 °C 15.1 °C 18.7 °C
Dew Point: 19.6 °C 14.1 °C 16.8 °C
Humidity: 95% 71% 89%
Wind Speed: 7.4km/h 0km/h 0.3km/h
Wind Gust: 7.4km/h - -
Wind- - WSW
Pressure: 1019.9 hPa 1017.2 hPa -
Precipitation: 0 mm    
Historical Graphs
 
 
Tabular Data for November 6, 2017
Time Temperature Dew Point Pressure Wind Wind Speed Wind Gust Humidity Rainfall Rate (Hourly) Conditions
00:02 16.9 °C 15.9 °C 1018.8 hPa Calm     94% 0 mm CLR
00:07 17 °C 16 °C 1018.8 hPa Calm     94% 0 mm CLR
00:09 17 °C 16 °C 1018.8 hPa Calm     94% 0 mm CLR
00:14 16.9 °C 15.9 °C 1018.8 hPa Calm     94% 0 mm CLR
00:19 17 °C 16 °C 1018.8 hPa Calm     94% 0 mm CLR
00:24 16.9 °C 15.9 °C 1018.8 hPa Calm     94% 0 mm CLR
00:30 16.9 °C 15.9 °C 1018.8 hPa Calm     94% 0 mm CLR
00:35 16.8 °C 15.9 °C 1018.8 hPa Calm     94% 0 mm CLR
00:40 16.8 °C 15.8 °C 1018.8 hPa Calm     94% 0 mm CLR
00:45 16.8 °C 15.8 °C 1018.8 hPa Calm     94% 0 mm CLR
00:50 16.7 °C 15.7 °C 1018.8 hPa Calm     94% 0 mm CLR
00:55 16.6 °C 15.7 °C 1018.8 hPa Calm     94% 0 mm CLR
01:00 16.6 °C 15.6 °C 1018.8 hPa Calm     94% 0 mm CLR
01:05 16.5 °C 15.6 °C 1018.8 hPa Calm     94% 0 mm CLR
01:10 16.5 °C 15.6 °C 1018.8 hPa Calm     94% 0 mm CLR
01:15 16.4 °C 15.5 °C 1018.8 hPa Calm     94% 0 mm CLR
01:20 16.5 °C 15.6 °C 1019.2 hPa WNW 1.9 km/h 1.9 km/h 94% 0 mm CLR
01:25 16.7 °C 15.7 °C 1019.2 hPa Calm     94% 0 mm CLR
01:30 16.7 °C 15.8 °C 1019.2 hPa Calm     94% 0 mm CLR
01:35 16.7 °C 15.7 °C 1019.2 hPa Calm     94% 0 mm CLR
01:40 16.8 °C 15.8 °C 1019.2 hPa Calm     94% 0 mm CLR
01:46 16.9 °C 15.9 °C 1019.2 hPa Calm     94% 0 mm CLR
01:51 16.9 °C 15.9 °C 1019.2 hPa Calm     94% 0 mm CLR
01:56 16.9 °C 15.9 °C 1019.2 hPa Calm     94% 0 mm CLR
02:01 16.8 °C 15.9 °C 1019.2 hPa Calm     94% 0 mm FEW
02:06 16.8 °C 15.8 °C 1019.5 hPa Calm     94% 0 mm FEW
02:11 16.8 °C 15.8 °C 1019.9 hPa Calm     94% 0 mm FEW
02:16 16.8 °C 15.9 °C 1019.5 hPa Calm     94% 0 mm FEW
02:18 16.8 °C 15.9 °C 1019.5 hPa Calm     94% 0 mm FEW
02:23 16.8 °C 15.8 °C 1019.9 hPa Calm     94% 0 mm FEW
02:28 16.7 °C 15.7 °C 1019.9 hPa Calm     94% 0 mm FEW
02:33 16.7 °C 15.7 °C 1019.9 hPa Calm     94% 0 mm FEW
02:38 16.7 °C 15.7 °C 1019.9 hPa Calm     94% 0 mm FEW
02:43 16.6 °C 15.7 °C 1019.5 hPa Calm     94% 0 mm FEW
02:48 16.6 °C 15.6 °C 1019.5 hPa Calm     94% 0 mm FEW
02:53 16.4 °C 15.4 °C 1019.5 hPa Calm     94% 0 mm FEW
02:58 16.4 °C 15.4 °C 1019.5 hPa Calm     94% 0 mm FEW
03:03 16.3 °C 15.4 °C 1019.5 hPa Calm     94% 0 mm CLR
03:08 16.3 °C 15.3 °C 1019.2 hPa Calm     94% 0 mm CLR
03:13 16.2 °C 15.3 °C 1019.2 hPa Calm     94% 0 mm CLR
03:18 16.2 °C 15.2 °C 1019.2 hPa Calm     94% 0 mm CLR
03:23 16.3 °C 15.4 °C 1018.8 hPa Calm     94% 0 mm CLR
03:28 16.4 °C 15.5 °C 1018.8 hPa Calm     94% 0 mm CLR
03:33 16.4 °C 15.5 °C 1018.8 hPa Calm     94% 0 mm CLR
03:38 16.4 °C 15.4 °C 1018.8 hPa Calm     94% 0 mm CLR
03:43 16.4 °C 15.4 °C 1019.2 hPa Calm     94% 0 mm CLR
03:49 16.4 °C 15.4 °C 1018.8 hPa Calm     94% 0 mm CLR
03:50 16.3 °C 15.4 °C 1018.8 hPa Calm     94% 0 mm CLR
03:55 16.3 °C 15.3 °C 1018.8 hPa Calm     94% 0 mm CLR
04:00 16.2 °C 15.2 °C 1018.8 hPa Calm     94% 0 mm CLR
04:05 16.1 °C 15.2 °C 1018.8 hPa Calm     94% 0 mm CLR
04:11 16 °C 15.1 °C 1018.8 hPa Calm     94% 0 mm CLR
04:16 15.9 °C 14.9 °C 1018.8 hPa Calm     94% 0 mm CLR
04:21 15.8 °C 14.9 °C 1018.8 hPa Calm     94% 0 mm CLR
04:26 15.8 °C 14.8 °C 1018.8 hPa Calm     94% 0 mm CLR
04:27 15.7 °C 14.8 °C 1018.5 hPa Calm     94% 0 mm CLR
04:32 15.7 °C 14.7 °C 1018.5 hPa Calm     94% 0 mm CLR
04:37 15.8 °C 14.8 °C 1018.5 hPa Calm     94% 0 mm CLR
04:42 15.8 °C 14.8 °C 1018.5 hPa Calm     94% 0 mm CLR
04:47 15.8 °C 14.8 °C 1018.5 hPa Calm     94% 0 mm CLR
04:52 15.7 °C 14.8 °C 1018.5 hPa Calm     94% 0 mm CLR
04:57 15.7 °C 14.8 °C 1018.8 hPa Calm     94% 0 mm CLR
05:02 15.7 °C 14.8 °C 1018.8 hPa Calm     94% 0 mm CLR
05:07 15.7 °C 14.7 °C 1018.8 hPa Calm     94% 0 mm CLR
05:12 15.6 °C 14.6 °C 1018.8 hPa Calm     94% 0 mm CLR
05:17 15.5 °C 14.6 °C 1018.8 hPa Calm     94% 0 mm CLR
05:22 15.4 °C 14.5 °C 1018.8 hPa Calm     94% 0 mm CLR
05:27 15.4 °C 14.4 °C 1018.8 hPa Calm     94% 0 mm CLR
05:32 15.3 °C 14.3 °C 1018.8 hPa Calm     94% 0 mm CLR
05:37 15.2 °C 14.2 °C 1018.8 hPa Calm     94% 0 mm CLR
05:42 15.1 °C 14.2 °C 1018.8 hPa Calm     94% 0 mm CLR
05:47 15.1 °C 14.1 °C 1018.8 hPa Calm     94% 0 mm CLR
05:53 15.1 °C 14.1 °C 1018.8 hPa Calm     94% 0 mm CLR
05:58 15.2 °C 14.2 °C 1018.8 hPa Calm     94% 0 mm CLR
06:03 15.2 °C 14.2 °C 1018.8 hPa Calm     94% 0 mm CLR
06:08 15.2 °C 14.3 °C 1018.8 hPa Calm     94% 0 mm CLR
06:13 15.3 °C 14.4 °C 1018.8 hPa Calm     94% 0 mm CLR
06:18 15.3 °C 14.4 °C 1018.8 hPa Calm     94% 0 mm CLR
06:23 15.4 °C 14.4 °C 1019.2 hPa Calm     94% 0 mm CLR
06:28 15.4 °C 14.4 °C 1019.2 hPa Calm     94% 0 mm CLR
06:33 15.4 °C 14.4 °C 1019.2 hPa Calm     94% 0 mm CLR
06:38 15.4 °C 14.4 °C 1019.2 hPa Calm     94% 0 mm CLR
06:43 15.4 °C 14.4 °C 1019.2 hPa Calm     94% 0 mm CLR
06:48 15.3 °C 14.4 °C 1019.2 hPa Calm     94% 0 mm CLR
06:53 15.3 °C 14.3 °C 1019.5 hPa Calm     94% 0 mm CLR
06:58 15.2 °C 14.3 °C 1019.5 hPa Calm     94% 0 mm CLR
07:03 15.2 °C 14.2 °C 1019.5 hPa Calm     94% 0 mm BKN
07:08 15.1 °C 14.2 °C 1019.5 hPa Calm     94% 0 mm BKN
07:13 15.1 °C 14.2 °C 1019.5 hPa Calm     94% 0 mm BKN
07:18 15.1 °C 14.1 °C 1019.5 hPa Calm     94% 0 mm BKN
07:23 15.1 °C 14.1 °C 1019.5 hPa Calm     94% 0 mm BKN
07:28 15.1 °C 14.1 °C 1019.2 hPa Calm     94% 0 mm BKN
07:33 15.1 °C 14.1 °C 1019.2 hPa Calm     94% 0 mm BKN
07:38 15.1 °C 14.2 °C 1019.2 hPa Calm     94% 0 mm BKN
07:43 15.2 °C 14.3 °C 1019.2 hPa Calm     94% 0 mm BKN
07:48 15.3 °C 14.3 °C 1019.2 hPa Calm     94% 0 mm BKN
07:53 15.3 °C 14.3 °C 1019.2 hPa Calm     94% 0 mm BKN
07:59 15.3 °C 14.3 °C 1019.2 hPa Calm     94% 0 mm BKN
08:04 15.4 °C 14.4 °C 1019.2 hPa Calm     94% 0 mm BKN
08:09 15.5 °C 14.6 °C 1018.8 hPa Calm     94% 0 mm BKN
08:14 15.7 °C 14.7 °C 1019.2 hPa Calm     94% 0 mm BKN
08:19 15.8 °C 15 °C 1019.2 hPa Calm     95% 0 mm BKN
08:24 15.9 °C 15.2 °C 1019.2 hPa Calm     95% 0 mm BKN
08:29 16.1 °C 15.3 °C 1019.2 hPa Calm     95% 0 mm BKN
08:34 16.2 °C 15.4 °C 1019.2 hPa Calm     95% 0 mm BKN
08:39 16.4 °C 15.6 °C 1019.5 hPa Calm     95% 0 mm BKN
08:44 16.6 °C 15.8 °C 1019.5 hPa Calm     95% 0 mm BKN
08:49 16.7 °C 15.9 °C 1019.9 hPa Calm     95% 0 mm BKN
08:54 17 °C 16.2 °C 1019.5 hPa Calm     95% 0 mm BKN
08:59 17.2 °C 16.3 °C 1019.5 hPa Calm     95% 0 mm BKN
09:04 17.4 °C 16.6 °C 1019.5 hPa Calm     95% 0 mm SCT
09:09 17.8 °C 17 °C 1019.5 hPa Calm     95% 0 mm SCT
09:14 17.9 °C 17.1 °C 1019.5 hPa WNW 1.9 km/h   95% 0 mm SCT
09:19 17.9 °C 17.1 °C 1019.5 hPa Calm     95% 0 mm SCT
09:24 18.1 °C 17.3 °C 1019.5 hPa Calm     95% 0 mm SCT
09:29 18.3 °C 17.4 °C 1019.5 hPa Calm     95% 0 mm SCT
09:34 18.4 °C 17.6 °C 1019.5 hPa Calm     95% 0 mm SCT
09:39 18.6 °C 17.8 °C 1019.5 hPa Calm     95% 0 mm SCT
09:44 18.9 °C 18.1 °C 1019.5 hPa WNW 1.9 km/h 1.9 km/h 95% 0 mm SCT
09:49 19.6 °C 18.6 °C 1019.2 hPa Calm     94% 0 mm SCT
09:55 20.4 °C 18.7 °C 1019.5 hPa Calm     90% 0 mm SCT
09:58 20.8 °C 18 °C 1019.5 hPa NNW 1.9 km/h   84% 0 mm SCT
10:03 21.2 °C 18 °C 1019.5 hPa Calm     82% 0 mm SCT
10:08 21.6 °C 18.2 °C 1019.5 hPa NNE 1.9 km/h   81% 0 mm SCT
10:13 21.8 °C 18.2 °C 1019.5 hPa SSW 1.9 km/h   80% 0 mm SCT
10:18 21.7 °C 17.7 °C 1019.5 hPa Calm     78% 0 mm SCT
10:23 21.6 °C 17.6 °C 1019.9 hPa Calm     78% 0 mm SCT
10:28 21.6 °C 17.8 °C 1019.9 hPa WNW 1.6 km/h 1.6 km/h 79% 0 mm SCT
10:33 21.4 °C 17.8 °C 1019.9 hPa Calm     80% 0 mm SCT
10:38 21.3 °C 17.9 °C 1019.9 hPa Calm     81% 0 mm SCT
10:43 21.3 °C 17.9 °C 1019.9 hPa Calm     81% 0 mm SCT
10:48 21.3 °C 17.5 °C 1019.5 hPa WNW 1.9 km/h 1.9 km/h 79% 0 mm SCT
10:54 21.4 °C 17.8 °C 1019.5 hPa WNW 3.7 km/h   80% 0 mm SCT
10:59 21.7 °C 17.9 °C 1019.2 hPa Calm     79% 0 mm SCT
11:04 22 °C 18.4 °C 1019.2 hPa Calm     80% 0 mm SCT
11:09 22.3 °C 18.3 °C 1019.2 hPa ESE 1.9 km/h   78% 0 mm SCT
11:14 22.5 °C 18.3 °C 1019.2 hPa WNW 1.9 km/h 1.9 km/h 77% 0 mm BKN
11:19 22.7 °C 18.1 °C 1019.2 hPa Calm     75% 0 mm BKN
11:24 22.8 °C 18.2 °C 1019.2 hPa West 1.9 km/h 1.9 km/h 75% 0 mm BKN
11:29 23 °C 17.9 °C 1019.2 hPa East 1.9 km/h   73% 0 mm BKN
11:34 23 °C 18.3 °C 1019.2 hPa NW 1.9 km/h   75% 0 mm BKN
11:39 22.9 °C 18.5 °C 1019.2 hPa NW 1.6 km/h   76% 0 mm BKN
11:44 22.9 °C 18.4 °C 1019.2 hPa NNE 3.7 km/h 3.7 km/h 76% 0 mm BKN
11:49 23.1 °C 18.8 °C 1019.2 hPa SW 3.7 km/h 3.7 km/h 77% 0 mm BKN
11:54 23.3 °C 18.6 °C 1019.2 hPa Calm     75% 0 mm BKN
11:59 23.4 °C 18.9 °C 1018.8 hPa West 1.6 km/h 1.6 km/h 76% 0 mm BKN
12:04 23.6 °C 19.1 °C 1018.8 hPa WNW 3.7 km/h 3.7 km/h 76% 0 mm BKN
12:09 23.8 °C 19.1 °C 1018.5 hPa West 3.7 km/h 3.7 km/h 75% 0 mm BKN
12:14 24 °C 18.8 °C 1018.5 hPa NNW 7.4 km/h 7.4 km/h 73% 0 mm BKN
12:24 24.2 °C 19 °C 1018.2 hPa NNE 1.9 km/h 1.9 km/h 73% 0 mm BKN
12:29 24.4 °C 19 °C 1018.2 hPa NNW 1.9 km/h   72% 0 mm BKN
12:35 24.6 °C 19.4 °C 1018.2 hPa Calm     73% 0 mm BKN
12:40 24.6 °C 19 °C 1018.2 hPa Calm   1.6 km/h 71% 0 mm BKN
12:45 24.6 °C 19.2 °C 1018.2 hPa Calm   1.6 km/h 72% 0 mm BKN
12:50 24.4 °C 18.8 °C 1018.2 hPa Calm   1.6 km/h 71% 0 mm BKN
12:55 24.2 °C 19 °C 1017.8 hPa Calm   3.2 km/h 73% 0 mm BKN
13:00 24.1 °C 18.9 °C 1017.8 hPa Calm     73% 0 mm BKN
13:05 24.1 °C 19.1 °C 1017.8 hPa Calm   1.6 km/h 74% 0 mm BKN
13:10 23.9 °C 19 °C 1017.8 hPa WNW 1.6 km/h 4.8 km/h 74% 0 mm BKN
13:15 23.9 °C 19 °C 1017.8 hPa Calm   3.2 km/h 74% 0 mm BKN
13:20 23.8 °C 19.1 °C 1017.8 hPa Calm   1.6 km/h 75% 0 mm BKN
13:25 23.6 °C 18.9 °C 1017.8 hPa Calm   1.6 km/h 75% 0 mm BKN
13:30 23.4 °C 18.9 °C 1017.8 hPa Calm   1.6 km/h 76% 0 mm BKN
13:35 23.4 °C 18.9 °C 1017.5 hPa Calm   1.6 km/h 76% 0 mm BKN
13:40 23.5 °C 19.2 °C 1017.5 hPa WNW 1.9 km/h   77% 0 mm BKN
13:45 23.6 °C 19.1 °C 1017.5 hPa Calm   3.2 km/h 76% 0 mm BKN
13:50 23.7 °C 19.4 °C 1017.5 hPa Calm   1.6 km/h 77% 0 mm BKN
13:55 23.6 °C 19.1 °C 1017.5 hPa Calm   3.2 km/h 76% 0 mm BKN
14:00 23.6 °C 19.3 °C 1017.5 hPa Calm   1.6 km/h 77% 0 mm BKN
14:05 23.5 °C 19.4 °C 1017.5 hPa Calm     78% 0 mm BKN
14:10 23.4 °C 19.6 °C 1017.5 hPa SW 1.6 km/h 4.8 km/h 79% 0 mm BKN
14:15 23.2 °C 19.5 °C 1017.2 hPa Calm     80% 0 mm BKN
14:20 23 °C 19.4 °C 1017.5 hPa Calm     80% 0 mm BKN
14:25 22.8 °C 19.3 °C 1017.5 hPa West 1.9 km/h 1.9 km/h 81% 0 mm BKN
14:30 22.6 °C 19.3 °C 1017.5 hPa SSW 5 km/h 5 km/h 82% 0 mm BKN
14:35 22.4 °C 19.2 °C 1017.5 hPa WSW 1.9 km/h   82% 0 mm BKN
14:40 22.3 °C 19.3 °C 1017.5 hPa WSW 1.9 km/h 1.9 km/h 83% 0 mm BKN
14:45 22.5 °C 19.4 °C 1017.5 hPa WNW 1.9 km/h 1.9 km/h 83% 0 mm -RA
14:50 22.6 °C 19.4 °C 1017.5 hPa Calm     82% 0 mm -RA
14:55 22.7 °C 19.3 °C 1017.5 hPa NW 1.9 km/h 1.9 km/h 81% 0 mm -RA
15:00 22.8 °C 19.2 °C 1017.5 hPa West 3.2 km/h 3.2 km/h 80% 0 mm -RA
15:05 22.8 °C 19.2 °C 1017.5 hPa Calm     80% 0 mm BKN
15:10 22.8 °C 19.4 °C 1017.5 hPa WSW 1.9 km/h 1.9 km/h 81% 0 mm BKN
15:15 22.8 °C 19.2 °C 1017.5 hPa SSW 1.9 km/h 1.9 km/h 80% 0 mm BKN
15:20 22.7 °C 18.9 °C 1017.5 hPa Calm     79% 0 mm BKN
15:25 22.7 °C 19.2 °C 1017.5 hPa SSE 1.6 km/h 1.6 km/h 81% 0 mm BKN
15:31 22.4 °C 19.2 °C 1017.5 hPa Calm     82% 0 mm BKN
15:36 22.3 °C 19.1 °C 1017.5 hPa ESE 1.6 km/h   82% 0 mm BKN
15:41 22.2 °C 19.2 °C 1017.8 hPa ESE 1.6 km/h   83% 0 mm BKN
15:46 22.1 °C 19.1 °C 1017.5 hPa Calm     83% 0 mm BKN
15:51 22 °C 19 °C 1017.5 hPa Calm     83% 0 mm BKN
15:56 21.9 °C 19.1 °C 1017.5 hPa Calm     84% 0 mm BKN
16:01 21.8 °C 19 °C 1017.5 hPa Calm     84% 0 mm BKN
16:06 21.7 °C 18.9 °C 1017.5 hPa West 1.9 km/h 1.9 km/h 84% 0 mm BKN
16:11 21.6 °C 19 °C 1017.8 hPa WNW 1.9 km/h 1.9 km/h 85% 0 mm BKN
16:16 21.6 °C 18.9 °C 1017.8 hPa Calm     85% 0 mm BKN
16:21 21.5 °C 18.9 °C 1017.5 hPa Calm     85% 0 mm BKN
16:26 21.4 °C 18.8 °C 1017.5 hPa Calm     85% 0 mm BKN
16:31 21.4 °C 18.8 °C 1017.5 hPa Calm     85% 0 mm BKN
16:36 21.4 °C 18.8 °C 1017.8 hPa Calm     85% 0 mm BKN
16:41 21.4 °C 18.8 °C 1017.8 hPa Calm     85% 0 mm BKN
16:46 21.3 °C 18.7 °C 1017.8 hPa Calm     85% 0 mm BKN
16:51 21.3 °C 18.7 °C 1017.8 hPa Calm     85% 0 mm BKN
16:56 21.2 °C 18.6 °C 1017.8 hPa Calm     85% 0 mm BKN
17:01 21.2 °C 18.6 °C 1017.8 hPa Calm     85% 0 mm OVC
17:06 21.1 °C 18.5 °C 1018.2 hPa Calm     85% 0 mm OVC
17:11 21.1 °C 18.6 °C 1018.2 hPa Calm     86% 0 mm OVC
17:17 20.9 °C 18.5 °C 1017.8 hPa Calm     86% 0 mm OVC
17:22 20.9 °C 18.4 °C 1017.8 hPa Calm     86% 0 mm OVC
17:27 20.8 °C 18.4 °C 1018.2 hPa Calm     86% 0 mm OVC
17:32 20.8 °C 18.3 °C 1018.2 hPa Calm     86% 0 mm OVC
17:37 20.7 °C 18.2 °C 1017.8 hPa Calm     86% 0 mm OVC
17:42 20.6 °C 18.1 °C 1017.8 hPa Calm     86% 0 mm OVC
17:47 20.4 °C 18.2 °C 1017.8 hPa Calm     87% 0 mm OVC
17:52 20.2 °C 18 °C 1017.8 hPa Calm     87% 0 mm OVC
18:02 19.9 °C 17.9 °C 1018.2 hPa Calm     88% 0 mm BKN
18:07 19.7 °C 17.8 °C 1018.2 hPa Calm     89% 0 mm BKN
18:12 19.6 °C 17.7 °C 1018.2 hPa Calm     89% 0 mm BKN
18:17 19.5 °C 17.6 °C 1018.2 hPa Calm     89% 0 mm BKN
18:22 19.3 °C 17.7 °C 1018.2 hPa Calm     90% 0 mm BKN
18:27 19.2 °C 17.6 °C 1018.5 hPa Calm     90% 0 mm BKN
18:32 19.1 °C 17.4 °C 1018.5 hPa Calm     90% 0 mm BKN
18:37 19 °C 17.3 °C 1018.5 hPa Calm     90% 0 mm BKN
18:42 18.9 °C 17.3 °C 1018.5 hPa Calm     90% 0 mm BKN
18:48 18.9 °C 17.4 °C 1018.5 hPa Calm     91% 0 mm BKN
18:53 18.8 °C 17.3 °C 1018.5 hPa Calm     91% 0 mm BKN
18:58 18.7 °C 17.2 °C 1018.5 hPa Calm     91% 0 mm BKN
19:03 18.7 °C 17.2 °C 1018.8 hPa Calm     91% 0 mm BKN
19:08 18.6 °C 17.1 °C 1018.5 hPa Calm     91% 0 mm BKN
19:13 18.6 °C 17.1 °C 1018.5 hPa Calm     91% 0 mm BKN
19:18 18.4 °C 16.9 °C 1018.5 hPa Calm     91% 0 mm BKN
19:23 18.4 °C 16.9 °C 1018.5 hPa Calm     91% 0 mm BKN
19:28 18.4 °C 17.1 °C 1018.5 hPa Calm     92% 0 mm BKN
19:33 18.4 °C 17.1 °C 1018.5 hPa Calm     92% 0 mm BKN
19:38 18.3 °C 17 °C 1018.5 hPa Calm     92% 0 mm BKN
19:43 18.3 °C 16.9 °C 1018.5 hPa Calm     92% 0 mm BKN
19:48 18.3 °C 17 °C 1018.5 hPa Calm     92% 0 mm BKN
19:53 18.3 °C 17 °C 1018.5 hPa Calm     92% 0 mm BKN
19:58 18.2 °C 16.9 °C 1018.5 hPa Calm     92% 0 mm BKN
20:03 18.2 °C 16.8 °C 1018.5 hPa Calm     92% 0 mm BKN
20:08 18.1 °C 16.8 °C 1018.5 hPa Calm     92% 0 mm BKN
20:13 18.2 °C 17 °C 1018.8 hPa Calm     93% 0 mm BKN
20:19 18.1 °C 16.9 °C 1018.5 hPa Calm     93% 0 mm BKN
20:24 18 °C 16.7 °C 1018.5 hPa Calm     92% 0 mm BKN
20:29 17.9 °C 16.6 °C 1018.8 hPa Calm     92% 0 mm BKN
20:34 17.8 °C 16.5 °C 1018.8 hPa Calm     92% 0 mm BKN
20:39 17.8 °C 16.6 °C 1018.8 hPa Calm     93% 0 mm BKN
20:44 17.7 °C 16.6 °C 1018.5 hPa Calm     93% 0 mm BKN
20:49 17.6 °C 16.3 °C 1018.5 hPa Calm     92% 0 mm BKN
20:54 17.5 °C 16.2 °C 1018.8 hPa Calm     92% 0 mm BKN
20:59 17.4 °C 16.1 °C 1018.5 hPa Calm     92% 0 mm BKN
21:04 17.3 °C 16 °C 1018.8 hPa Calm     92% 0 mm SCT
21:09 17.3 °C 16.1 °C 1018.8 hPa Calm     93% 0 mm SCT
21:14 17.4 °C 16.2 °C 1018.8 hPa Calm     93% 0 mm SCT
21:19 17.4 °C 16.2 °C 1018.8 hPa Calm     93% 0 mm SCT
21:24 17.3 °C 16.2 °C 1018.8 hPa Calm     93% 0 mm SCT
21:29 17.3 °C 16.1 °C 1018.8 hPa Calm     93% 0 mm SCT
21:34 17.3 °C 16.1 °C 1018.8 hPa Calm     93% 0 mm SCT
21:39 17.2 °C 16.1 °C 1018.8 hPa Calm     93% 0 mm SCT
21:44 17.2 °C 16.1 °C 1018.8 hPa Calm     93% 0 mm SCT
21:49 17.2 °C 16.1 °C 1018.8 hPa Calm     93% 0 mm SCT
21:54 17.2 °C 16.1 °C 1018.8 hPa Calm     93% 0 mm SCT
21:59 17.3 °C 16.2 °C 1018.8 hPa Calm     93% 0 mm SCT
22:04 17.3 °C 16.2 °C 1018.8 hPa Calm     93% 0 mm FEW
22:09 17.4 °C 16.2 °C 1018.8 hPa Calm     93% 0 mm FEW
22:15 17.3 °C 16.2 °C 1019.2 hPa Calm     93% 0 mm FEW
22:20 17.2 °C 16.1 °C 1019.2 hPa Calm     93% 0 mm FEW
22:26 17.2 °C 16 °C 1019.2 hPa Calm     93% 0 mm FEW
22:31 17.2 °C 16.1 °C 1019.2 hPa Calm     93% 0 mm FEW
22:36 17.3 °C 16.3 °C 1019.2 hPa Calm     94% 0 mm FEW
22:41 17.4 °C 16.4 °C 1019.2 hPa Calm     94% 0 mm FEW
22:46 17.4 °C 16.4 °C 1019.2 hPa Calm     94% 0 mm FEW
22:56 17.7 °C 16.7 °C 1019.2 hPa Calm     94% 0 mm FEW
23:01 17.8 °C 16.8 °C 1019.2 hPa Calm     94% 0 mm SCT
23:06 17.9 °C 16.9 °C 1018.8 hPa Calm     94% 0 mm SCT
23:11 18 °C 17 °C 1018.8 hPa Calm     94% 0 mm BKN
23:16 18.1 °C 17.1 °C 1018.8 hPa Calm     94% 0 mm BKN
23:21 18.1 °C 17.1 °C 1018.8 hPa Calm     94% 0 mm BKN
23:26 18.2 °C 17.2 °C 1018.8 hPa Calm     94% 0 mm BKN
23:31 18.2 °C 17.2 °C 1018.8 hPa Calm     94% 0 mm BKN
23:36 18.2 °C 17.2 °C 1018.8 hPa Calm     94% 0 mm BKN
23:41 18.2 °C 17.2 °C 1018.8 hPa Calm     94% 0 mm BKN
23:46 18.2 °C 17.2 °C 1018.8 hPa Calm     94% 0 mm BKN
23:51 18.2 °C 17.2 °C 1018.8 hPa Calm     94% 0 mm BKN
23:56 18.2 °C 17.2 °C 1018.8 hPa Calm     94% 0 mm BKN
Piedmont Bend
Compliments of Weather Underground - 4 mb